Time;durP1;ratioP1;P1;durP2;ratioP2;P2;SDS_P1;SDS_P2;PMS_P1;PMS_P2;Temp;Humidity;BMP_temperature;BMP_pressure;BME280_temperature;BME280_humidity;BME280_pressure;Samples;Min_cycle;Max_cycle;Signal;HPM_P1;HPM_P2
2023/01/03 00:00:11;;;;;;;0.10;0.10;;;;;;;;;;4957114;28;20122;-74
2023/01/03 00:02:37;;;;;;;0.10;0.10;;;;;;;;;;4941841;28;20054;-74
2023/01/03 00:05:03;;;;;;;0.10;0.10;;;;;;;;;;4978457;28;20150;-74
2023/01/03 00:07:32;;;;;;;0.10;0.10;;;;;;;;;;4959275;28;20059;-74
2023/01/03 00:10:07;;;;;;;0.10;0.10;;;;;;;;;;4957779;28;20061;-74
2023/01/03 00:12:34;;;;;;;0.10;0.10;;;;;;;;;;4976426;28;20053;-74
2023/01/03 00:15:00;;;;;;;0.10;0.10;;;;;;;;;;4957704;28;20108;-74
2023/01/03 00:17:27;;;;;;;0.10;0.10;;;;;;;;;;4957110;28;20622;-74
2023/01/03 00:19:53;;;;;;;0.10;0.10;;;;;;;;;;4976061;28;20576;-73
2023/01/03 00:22:19;;;;;;;0.10;0.10;;;;;;;;;;4970863;28;20049;-73
2023/01/03 00:24:46;;;;;;;0.10;0.10;;;;;;;;;;4972010;28;20053;-75
2023/01/03 00:27:12;;;;;;;0.10;0.10;;;;;;;;;;4973382;28;20516;-73
2023/01/03 00:29:38;;;;;;;0.10;0.10;;;;;;;;;;4951715;28;20831;-73
2023/01/03 00:32:05;;;;;;;0.10;0.10;;;;;;;;;;4953067;28;20439;-74
2023/01/03 00:34:31;;;;;;;0.10;0.10;;;;;;;;;;4952587;28;20045;-74
2023/01/03 00:36:57;;;;;;;0.10;0.10;;;;;;;;;;4954647;28;20437;-74
2023/01/03 00:39:24;;;;;;;0.10;0.10;;;;;;;;;;4955760;28;20042;-74
2023/01/03 00:41:50;;;;;;;0.38;0.38;;;;;;;;;;4953517;28;20050;-74
2023/01/03 00:44:16;;;;;;;0.10;0.10;;;;;;;;;;4953759;28;20046;-74
2023/01/03 00:46:42;;;;;;;0.10;0.10;;;;;;;;;;4956888;28;20548;-74
2023/01/03 00:49:09;;;;;;;0.10;0.10;;;;;;;;;;4955890;28;20072;-74
2023/01/03 00:51:36;;;;;;;0.10;0.10;;;;;;;;;;4952809;28;20058;-74
2023/01/03 00:54:02;;;;;;;0.10;0.10;;;;;;;;;;4954262;28;20053;-74
2023/01/03 00:56:30;;;;;;;0.10;0.10;;;;;;;;;;4953983;28;20079;-74
2023/01/03 00:58:56;;;;;;;0.10;0.10;;;;;;;;;;4951860;28;20119;-75
2023/01/03 01:01:24;;;;;;;0.10;0.10;;;;;;;;;;4954387;28;20046;-74
2023/01/03 01:03:51;;;;;;;0.10;0.10;;;;;;;;;;4955351;28;20045;-74
2023/01/03 01:06:26;;;;;;;0.10;0.10;;;;;;;;;;4950929;28;20164;-74
2023/01/03 01:08:53;;;;;;;0.10;0.10;;;;;;;;;;4944348;28;20082;-74
2023/01/03 01:11:19;;;;;;;0.10;0.10;;;;;;;;;;4953061;28;20071;-74
2023/01/03 01:13:46;;;;;;;0.10;0.10;;;;;;;;;;4953361;28;20500;-74
2023/01/03 01:16:13;;;;;;;0.10;0.10;;;;;;;;;;4953308;28;20446;-75
2023/01/03 01:18:40;;;;;;;0.10;0.10;;;;;;;;;;4954160;28;20298;-75
2023/01/03 01:21:07;;;;;;;0.10;0.10;;;;;;;;;;4951456;28;20053;-74
2023/01/03 01:23:34;;;;;;;0.10;0.10;;;;;;;;;;4949948;28;20447;-74
2023/01/03 01:26:01;;;;;;;0.10;0.10;;;;;;;;;;4953527;28;20046;-74
2023/01/03 01:28:27;;;;;;;0.10;0.10;;;;;;;;;;4952032;28;20057;-74
2023/01/03 01:30:53;;;;;;;0.10;0.10;;;;;;;;;;4953077;28;20761;-75
2023/01/03 01:33:19;;;;;;;0.10;0.10;;;;;;;;;;4951163;28;20054;-74
2023/01/03 01:35:45;;;;;;;0.10;0.10;;;;;;;;;;4951934;28;20046;-75
2023/01/03 01:38:11;;;;;;;0.10;0.10;;;;;;;;;;4952063;28;20058;-74
2023/01/03 01:40:38;;;;;;;0.10;0.10;;;;;;;;;;4953501;28;20489;-74
2023/01/03 01:46:14;;;;;;;0.10;0.10;;;;;;;;;;4983611;28;20056;-75
2023/01/03 01:48:41;;;;;;;0.10;0.10;;;;;;;;;;4968705;28;20042;-75
2023/01/03 01:51:08;;;;;;;0.10;0.10;;;;;;;;;;4954051;28;20430;-75
2023/01/03 01:53:36;;;;;;;0.10;0.10;;;;;;;;;;4953959;28;20061;-76
2023/01/03 01:56:07;;;;;;;0.10;0.10;;;;;;;;;;4952122;28;20096;-76
2023/01/03 01:58:35;;;;;;;0.10;0.10;;;;;;;;;;4968693;28;20457;-75
2023/01/03 02:01:04;;;;;;;0.10;0.10;;;;;;;;;;4971072;28;20179;-75
2023/01/03 02:03:30;;;;;;;0.10;0.10;;;;;;;;;;4973794;28;20153;-75
2023/01/03 02:05:57;;;;;;;0.10;0.10;;;;;;;;;;4956633;28;20054;-75
2023/01/03 02:08:23;;;;;;;0.10;0.10;;;;;;;;;;4976393;28;20043;-75
2023/01/03 02:11:05;;;;;;;0.10;0.10;;;;;;;;;;4945811;28;20083;-75
2023/01/03 02:13:37;;;;;;;0.10;0.10;;;;;;;;;;4956569;28;20150;-75
2023/01/03 02:16:21;;;;;;;0.10;0.10;;;;;;;;;;4975479;28;20129;-75
2023/01/03 02:18:54;;;;;;;0.10;0.10;;;;;;;;;;4953842;28;20058;-74
2023/01/03 02:21:43;;;;;;;0.10;0.10;;;;;;;;;;4951182;28;20126;-75
2023/01/03 02:24:42;;;;;;;0.10;0.10;;;;;;;;;;4952952;28;20046;-74
2023/01/03 02:27:20;;;;;;;0.10;0.10;;;;;;;;;;4977609;28;21382;-75
2023/01/03 02:29:55;;;;;;;0.10;0.10;;;;;;;;;;4952081;28;20091;-75
2023/01/03 02:32:34;;;;;;;0.10;0.10;;;;;;;;;;4943398;28;20057;-75
2023/01/03 02:35:23;;;;;;;0.20;0.20;;;;;;;;;;4950240;28;20102;-75
2023/01/03 02:37:49;;;;;;;0.10;0.10;;;;;;;;;;4972239;28;20054;-75
2023/01/03 02:40:18;;;;;;;0.10;0.10;;;;;;;;;;4950599;28;20061;-75
2023/01/03 02:43:01;;;;;;;0.10;0.10;;;;;;;;;;4951727;28;20042;-75
2023/01/03 02:45:30;;;;;;;0.10;0.10;;;;;;;;;;4953334;28;20048;-75
2023/01/03 02:47:59;;;;;;;0.10;0.10;;;;;;;;;;4954061;28;20492;-75
2023/01/03 02:50:27;;;;;;;4.57;1.05;;;;;;;;;;4951416;28;20049;-75
2023/01/03 02:52:56;;;;;;;0.10;0.10;;;;;;;;;;4954848;28;20092;-75
2023/01/03 02:55:23;;;;;;;0.20;0.20;;;;;;;;;;4953407;28;20420;-75
2023/01/03 02:57:52;;;;;;;0.10;0.10;;;;;;;;;;4952387;28;20049;-75
2023/01/03 03:00:20;;;;;;;0.10;0.10;;;;;;;;;;4972297;28;21478;-74
2023/01/03 03:02:50;;;;;;;0.10;0.10;;;;;;;;;;4971173;28;20050;-75
2023/01/03 03:05:20;;;;;;;0.10;0.10;;;;;;;;;;4969507;28;20527;-74
2023/01/03 03:07:47;;;;;;;0.10;0.10;;;;;;;;;;4974705;28;20046;-75
2023/01/03 03:13:12;;;;;;;0.10;0.10;;;;;;;;;;4970606;28;20519;-76
2023/01/03 03:15:46;;;;;;;0.10;0.10;;;;;;;;;;4949382;28;20050;-76
2023/01/03 03:18:16;;;;;;;0.10;0.10;;;;;;;;;;4972032;28;20050;-76
2023/01/03 03:26:20;;;;;;;0.10;0.10;;;;;;;;;;4971291;28;20405;-76
2023/01/03 03:28:48;;;;;;;0.10;0.10;;;;;;;;;;4973435;28;20054;-76
2023/01/03 03:31:17;;;;;;;0.10;0.10;;;;;;;;;;4967948;28;21358;-75
2023/01/03 03:33:48;;;;;;;0.10;0.10;;;;;;;;;;4950753;28;20042;-76
2023/01/03 03:36:22;;;;;;;0.10;0.10;;;;;;;;;;4950865;28;20058;-76
2023/01/03 03:38:48;;;;;;;;;;;;;;;;;;4951880;28;20482;-76
2023/01/03 03:47:17;;;;;;;0.10;0.10;;;;;;;;;;4967990;28;20057;-75
2023/01/03 03:49:43;;;;;;;0.10;0.10;;;;;;;;;;4981629;28;20042;-75
2023/01/03 03:52:12;;;;;;;0.10;0.10;;;;;;;;;;4950392;28;20057;-76
2023/01/03 03:54:40;;;;;;;0.10;0.10;;;;;;;;;;4953071;28;20070;-76
2023/01/03 03:57:12;;;;;;;0.10;0.10;;;;;;;;;;4950550;28;20049;-76
2023/01/03 03:59:41;;;;;;;0.10;0.10;;;;;;;;;;4949939;28;20054;-75
2023/01/03 04:02:08;;;;;;;0.10;0.10;;;;;;;;;;4952140;28;20045;-75
2023/01/03 04:04:37;;;;;;;0.10;0.10;;;;;;;;;;4950728;28;20069;-75
2023/01/03 04:07:03;;;;;;;0.10;0.10;;;;;;;;;;4948594;28;20065;-75
2023/01/03 04:09:29;;;;;;;0.10;0.10;;;;;;;;;;4954139;28;20109;-75
2023/01/03 04:11:55;;;;;;;0.10;0.10;;;;;;;;;;4955006;28;20528;-75
2023/01/03 04:14:21;;;;;;;0.10;0.10;;;;;;;;;;4954907;28;20050;-75
2023/01/03 04:16:47;;;;;;;0.10;0.10;;;;;;;;;;4971654;28;20522;-76
2023/01/03 04:19:13;;;;;;;0.13;0.13;;;;;;;;;;4968151;28;20489;-76
2023/01/03 04:21:39;;;;;;;0.10;0.10;;;;;;;;;;4950856;28;20094;-76
2023/01/03 04:24:05;;;;;;;0.10;0.10;;;;;;;;;;4952151;28;20417;-75
2023/01/03 04:26:32;;;;;;;0.10;0.10;;;;;;;;;;4970325;28;20089;-76
2023/01/03 04:28:58;;;;;;;0.10;0.10;;;;;;;;;;4948912;28;20062;-75
2023/01/03 04:31:24;;;;;;;0.10;0.10;;;;;;;;;;4948498;28;20638;-76
2023/01/03 04:33:52;;;;;;;0.10;0.10;;;;;;;;;;4969671;28;20042;-75
2023/01/03 04:36:18;;;;;;;0.10;0.10;;;;;;;;;;4942257;28;20062;-75
2023/01/03 04:38:45;;;;;;;0.10;0.10;;;;;;;;;;4937575;28;20059;-75
2023/01/03 04:41:11;;;;;;;0.10;0.10;;;;;;;;;;4929266;28;20939;-75
2023/01/03 04:46:22;;;;;;;0.10;0.10;;;;;;;;;;4933043;28;20047;-76
2023/01/03 04:48:48;;;;;;;0.10;0.10;;;;;;;;;;4934044;28;20047;-75
2023/01/03 04:51:14;;;;;;;0.10;0.10;;;;;;;;;;4931852;28;20132;-75
2023/01/03 04:53:40;;;;;;;0.17;0.17;;;;;;;;;;4935607;28;20095;-75
2023/01/03 04:56:06;;;;;;;0.10;0.10;;;;;;;;;;4932894;28;20057;-75
2023/01/03 04:58:32;;;;;;;0.13;0.13;;;;;;;;;;4933117;28;20047;-75
2023/01/03 05:00:59;;;;;;;0.10;0.10;;;;;;;;;;4933650;28;20047;-75
2023/01/03 05:03:25;;;;;;;0.10;0.10;;;;;;;;;;4932971;28;20129;-75
2023/01/03 05:05:51;;;;;;;0.10;0.10;;;;;;;;;;4931828;28;20051;-75
2023/01/03 05:08:17;;;;;;;0.10;0.10;;;;;;;;;;4949205;28;20154;-75
2023/01/03 05:10:43;;;;;;;0.10;0.10;;;;;;;;;;4932629;28;20053;-75
2023/01/03 05:13:10;;;;;;;0.10;0.10;;;;;;;;;;4922489;28;20482;-75
2023/01/03 05:15:37;;;;;;;0.10;0.10;;;;;;;;;;4933701;28;20041;-76
2023/01/03 05:18:03;;;;;;;0.10;0.10;;;;;;;;;;4931387;28;20047;-76
2023/01/03 05:26:03;;;;;;;0.17;0.17;;;;;;;;;;4934649;28;20058;-75
2023/01/03 05:28:29;;;;;;;0.32;0.32;;;;;;;;;;4917267;28;20104;-76
2023/01/03 05:30:57;;;;;;;0.10;0.10;;;;;;;;;;4929512;28;20556;-75
2023/01/03 05:33:23;;;;;;;0.10;0.10;;;;;;;;;;4933476;28;20054;-75
2023/01/03 05:35:49;;;;;;;0.10;0.10;;;;;;;;;;4930865;28;20057;-75
2023/01/03 05:38:16;;;;;;;0.10;0.10;;;;;;;;;;4952993;28;20643;-75
2023/01/03 05:40:42;;;;;;;0.10;0.10;;;;;;;;;;4952851;28;20148;-76
2023/01/03 05:43:08;;;;;;;0.10;0.10;;;;;;;;;;4954250;28;20473;-76
2023/01/03 05:45:35;;;;;;;0.10;0.10;;;;;;;;;;4952744;28;20038;-76
2023/01/03 05:48:01;;;;;;;0.40;0.40;;;;;;;;;;4954839;28;20046;-76
2023/01/03 05:50:27;;;;;;;0.13;0.13;;;;;;;;;;4944468;28;20648;-76
2023/01/03 05:52:53;;;;;;;0.10;0.10;;;;;;;;;;4951743;28;20534;-76
2023/01/03 05:55:19;;;;;;;0.20;0.20;;;;;;;;;;4972206;28;20053;-76
2023/01/03 05:57:46;;;;;;;0.52;0.52;;;;;;;;;;4952251;28;20062;-74
2023/01/03 06:00:12;;;;;;;0.10;0.10;;;;;;;;;;4969575;28;20062;-75
2023/01/03 06:02:38;;;;;;;0.10;0.10;;;;;;;;;;4950103;28;20288;-73
2023/01/03 06:05:05;;;;;;;0.10;0.10;;;;;;;;;;4952568;28;20053;-75
2023/01/03 06:07:32;;;;;;;0.10;0.10;;;;;;;;;;4952574;28;20061;-77
2023/01/03 06:09:59;;;;;;;0.10;0.10;;;;;;;;;;4972959;28;20223;-76
2023/01/03 06:12:26;;;;;;;0.10;0.10;;;;;;;;;;4951500;28;20453;-77
2023/01/03 06:14:52;;;;;;;0.30;0.30;;;;;;;;;;4952696;28;20061;-76
2023/01/03 06:20:03;;;;;;;0.10;0.10;;;;;;;;;;4953661;28;20057;-77
2023/01/03 06:22:29;;;;;;;0.10;0.10;;;;;;;;;;4972349;28;20419;-74
2023/01/03 06:24:55;;;;;;;0.10;0.10;;;;;;;;;;4952612;28;20488;-75
2023/01/03 06:27:21;;;;;;;0.10;0.10;;;;;;;;;;4951239;28;20202;-75
2023/01/03 06:29:47;;;;;;;0.10;0.10;;;;;;;;;;4950596;28;20045;-75
2023/01/03 06:32:13;;;;;;;0.10;0.10;;;;;;;;;;4952247;28;20054;-74
2023/01/03 06:34:39;;;;;;;0.10;0.10;;;;;;;;;;4954048;28;20960;-74
2023/01/03 06:37:05;;;;;;;0.10;0.10;;;;;;;;;;4953445;28;20531;-74
2023/01/03 06:39:34;;;;;;;0.10;0.10;;;;;;;;;;4951715;28;20496;-75
2023/01/03 06:42:38;;;;;;;1.40;1.30;;;;;;;;;;4952797;28;20049;-74
2023/01/03 06:53:10;;;;;;;0.10;0.10;;;;;;;;;;4956831;28;20650;-74
2023/01/03 06:53:13;;;;;;;0.10;0.10;;;;;;;;;;4955020;28;20569;-73
2023/01/03 06:55:43;;;;;;;0.10;0.10;;;;;;;;;;4974385;28;20046;-74
2023/01/03 06:58:10;;;;;;;0.10;0.10;;;;;;;;;;4957737;28;20041;-74
2023/01/03 07:00:37;;;;;;;0.10;0.10;;;;;;;;;;4954521;28;20141;-74
2023/01/03 07:03:03;;;;;;;0.95;0.95;;;;;;;;;;4955062;28;20049;-74
2023/01/03 07:05:29;;;;;;;0.10;0.10;;;;;;;;;;4956263;28;20046;-74
2023/01/03 07:07:55;;;;;;;0.10;0.10;;;;;;;;;;4956783;28;20064;-74
2023/01/03 07:10:22;;;;;;;0.10;0.10;;;;;;;;;;4973288;28;20048;-74
2023/01/03 07:15:32;;;;;;;0.10;0.10;;;;;;;;;;4986826;28;20607;-75
2023/01/03 07:17:58;;;;;;;0.10;0.10;;;;;;;;;;4954354;28;20045;-74
2023/01/03 07:20:25;;;;;;;1.65;1.08;;;;;;;;;;4970486;28;20042;-74
2023/01/03 07:22:51;;;;;;;0.10;0.10;;;;;;;;;;4973986;28;20050;-73
2023/01/03 07:25:18;;;;;;;0.10;0.10;;;;;;;;;;4975073;28;20730;-77
2023/01/03 07:27:44;;;;;;;0.10;0.10;;;;;;;;;;4957029;28;20061;-77
2023/01/03 07:30:10;;;;;;;0.30;0.30;;;;;;;;;;4955167;28;20042;-77
2023/01/03 07:32:36;;;;;;;0.40;0.40;;;;;;;;;;4973101;28;20589;-76
2023/01/03 07:35:02;;;;;;;0.10;0.10;;;;;;;;;;4985725;28;20390;-77
2023/01/03 07:37:28;;;;;;;0.10;0.10;;;;;;;;;;4953586;28;20456;-74
2023/01/03 07:39:54;;;;;;;0.10;0.10;;;;;;;;;;4953853;28;20087;-74
2023/01/03 07:45:05;;;;;;;0.15;0.15;;;;;;;;;;4951629;28;20102;-74
2023/01/03 07:47:31;;;;;;;0.10;0.10;;;;;;;;;;4952753;28;20046;-74
2023/01/03 07:49:58;;;;;;;2.95;2.72;;;;;;;;;;4956487;28;20137;-74
2023/01/03 07:52:24;;;;;;;0.10;0.10;;;;;;;;;;4987411;28;20307;-74
2023/01/03 07:54:50;;;;;;;0.10;0.10;;;;;;;;;;4953417;28;20050;-74
2023/01/03 07:57:16;;;;;;;0.20;0.20;;;;;;;;;;4952434;28;20055;-74
2023/01/03 07:59:42;;;;;;;0.30;0.30;;;;;;;;;;4951046;28;20069;-74
2023/01/03 08:02:08;;;;;;;0.10;0.10;;;;;;;;;;4951091;28;20051;-74
2023/01/03 08:04:34;;;;;;;0.15;0.15;;;;;;;;;;4952136;28;20057;-74
2023/01/03 08:07:00;;;;;;;0.10;0.10;;;;;;;;;;4968398;28;20046;-74
2023/01/03 08:14:55;;;;;;;0.10;0.10;;;;;;;;;;4948750;28;20427;-74
2023/01/03 08:17:21;;;;;;;0.10;0.10;;;;;;;;;;4933111;28;20046;-74
2023/01/03 08:19:47;;;;;;;0.75;0.75;;;;;;;;;;4948647;28;20050;-74
2023/01/03 08:22:13;;;;;;;0.35;0.35;;;;;;;;;;4937629;28;20046;-76
2023/01/03 08:24:39;;;;;;;0.10;0.10;;;;;;;;;;4952623;28;20070;-77
2023/01/03 08:27:05;;;;;;;0.40;0.40;;;;;;;;;;4953575;28;20050;-76
2023/01/03 08:29:31;;;;;;;0.30;0.30;;;;;;;;;;4965320;28;20042;-74
2023/01/03 08:32:01;;;;;;;0.40;0.40;;;;;;;;;;4952550;28;20311;-74
2023/01/03 08:34:30;;;;;;;0.20;0.20;;;;;;;;;;4953191;28;20133;-74
2023/01/03 08:36:59;;;;;;;0.10;0.10;;;;;;;;;;4950872;28;20058;-75
2023/01/03 08:39:27;;;;;;;0.10;0.10;;;;;;;;;;4951141;28;20080;-75
2023/01/03 08:41:59;;;;;;;0.52;0.52;;;;;;;;;;4947042;28;20061;-74
2023/01/03 08:44:25;;;;;;;0.15;0.15;;;;;;;;;;4953890;28;20572;-74
2023/01/03 08:46:54;;;;;;;0.20;0.20;;;;;;;;;;4952710;28;20050;-75
2023/01/03 08:49:20;;;;;;;0.10;0.10;;;;;;;;;;4950109;28;20038;-75
2023/01/03 08:51:46;;;;;;;0.10;0.10;;;;;;;;;;4948758;28;20047;-75
2023/01/03 08:54:12;;;;;;;0.15;0.15;;;;;;;;;;4948867;28;20488;-75
2023/01/03 08:56:39;;;;;;;0.10;0.10;;;;;;;;;;4951359;28;20050;-75
2023/01/03 08:59:05;;;;;;;0.45;0.45;;;;;;;;;;4950794;28;20489;-75
2023/01/03 09:01:31;;;;;;;0.10;0.10;;;;;;;;;;4984595;28;20047;-74
2023/01/03 09:03:57;;;;;;;0.20;0.20;;;;;;;;;;4986365;28;20050;-74
2023/01/03 09:06:23;;;;;;;0.10;0.10;;;;;;;;;;4974584;28;20046;-76
2023/01/03 09:08:49;;;;;;;0.10;0.10;;;;;;;;;;4954253;28;20187;-75
2023/01/03 09:11:15;;;;;;;0.10;0.10;;;;;;;;;;4950030;28;20183;-77
2023/01/03 09:13:41;;;;;;;0.25;0.25;;;;;;;;;;4951997;28;20053;-77
2023/01/03 09:16:09;;;;;;;0.10;0.10;;;;;;;;;;4951413;28;20046;-78
2023/01/03 09:18:36;;;;;;;0.10;0.10;;;;;;;;;;4953719;28;20093;-78
2023/01/03 09:21:02;;;;;;;0.75;0.75;;;;;;;;;;4954349;28;20061;-78
2023/01/03 09:23:29;;;;;;;0.10;0.10;;;;;;;;;;4952739;28;20061;-78
2023/01/03 09:25:55;;;;;;;0.10;0.10;;;;;;;;;;4953243;28;20115;-78
2023/01/03 09:28:21;;;;;;;0.10;0.10;;;;;;;;;;4952190;28;20042;-78
2023/01/03 09:30:47;;;;;;;0.10;0.10;;;;;;;;;;4943392;28;20665;-77
2023/01/03 09:33:13;;;;;;;0.10;0.10;;;;;;;;;;4954214;28;20138;-78
2023/01/03 09:35:39;;;;;;;0.10;0.10;;;;;;;;;;4955105;28;20052;-77
2023/01/03 09:38:05;;;;;;;0.15;0.15;;;;;;;;;;4955124;28;20640;-77
2023/01/03 09:40:35;;;;;;;0.10;0.10;;;;;;;;;;4988505;28;20061;-76
2023/01/03 09:43:12;;;;;;;0.10;0.10;;;;;;;;;;4952784;28;20050;-77
2023/01/03 09:45:42;;;;;;;0.10;0.10;;;;;;;;;;4951850;28;20073;-77
2023/01/03 09:48:10;;;;;;;0.10;0.10;;;;;;;;;;4952793;28;20046;-78
2023/01/03 09:50:37;;;;;;;0.10;0.10;;;;;;;;;;4953817;28;20062;-78
2023/01/03 10:04:23;;;;;;;0.10;0.10;;;;;;;;;;4952683;28;20503;-76
2023/01/03 10:07:00;;;;;;;0.10;0.10;;;;;;;;;;4956169;28;20054;-77
2023/01/03 10:09:39;;;;;;;0.85;0.85;;;;;;;;;;4984238;28;20046;-77
2023/01/03 10:12:08;;;;;;;0.10;0.10;;;;;;;;;;4974378;28;20042;-77
2023/01/03 10:14:49;;;;;;;0.10;0.10;;;;;;;;;;4950817;28;20046;-77
2023/01/03 10:17:29;;;;;;;0.10;0.10;;;;;;;;;;4950251;28;20054;-77
2023/01/03 10:19:55;;;;;;;0.10;0.10;;;;;;;;;;4952256;28;20082;-78
2023/01/03 10:22:25;;;;;;;0.10;0.10;;;;;;;;;;4951293;28;20089;-80
2023/01/03 10:24:57;;;;;;;0.10;0.10;;;;;;;;;;4982627;28;20049;-79
2023/01/03 10:27:25;;;;;;;1.00;1.00;;;;;;;;;;4953477;28;20054;-76
2023/01/03 10:29:53;;;;;;;0.10;0.10;;;;;;;;;;4956205;28;20424;-77
2023/01/03 10:32:19;;;;;;;0.10;0.10;;;;;;;;;;4987368;28;20050;-77
2023/01/03 10:35:00;;;;;;;0.40;0.40;;;;;;;;;;4957441;28;20064;-80
2023/01/03 10:37:26;;;;;;;0.10;0.10;;;;;;;;;;4954013;28;20089;-77
2023/01/03 10:40:03;;;;;;;0.25;0.25;;;;;;;;;;4951444;28;20079;-78
2023/01/03 10:42:30;;;;;;;0.10;0.10;;;;;;;;;;4970285;28;20089;-78
2023/01/03 10:44:59;;;;;;;0.95;0.95;;;;;;;;;;4951494;28;20576;-77
2023/01/03 10:47:26;;;;;;;0.10;0.10;;;;;;;;;;4952561;28;20665;-83
2023/01/03 10:49:58;;;;;;;0.10;0.10;;;;;;;;;;4952787;28;20214;-78
2023/01/03 10:52:29;;;;;;;0.20;0.20;;;;;;;;;;4951835;28;20083;-80
2023/01/03 10:55:00;;;;;;;0.10;0.10;;;;;;;;;;4952350;28;20472;-79
2023/01/03 10:57:36;;;;;;;0.13;0.13;;;;;;;;;;4952401;28;20092;-82
2023/01/03 11:00:20;;;;;;;0.10;0.10;;;;;;;;;;4958309;28;20408;-77
2023/01/03 11:02:46;;;;;;;0.30;0.30;;;;;;;;;;4953503;28;20074;-79
2023/01/03 11:05:23;;;;;;;0.10;0.10;;;;;;;;;;4946961;28;20502;-81
2023/01/03 11:07:54;;;;;;;0.20;0.20;;;;;;;;;;4954463;28;20396;-78
2023/01/03 11:10:20;;;;;;;0.10;0.10;;;;;;;;;;4955261;28;20054;-79
2023/01/03 11:12:46;;;;;;;0.25;0.25;;;;;;;;;;4954905;28;20110;-79
2023/01/03 11:15:15;;;;;;;0.10;0.10;;;;;;;;;;4975330;28;20043;-80
2023/01/03 11:18:01;;;;;;;0.10;0.10;;;;;;;;;;4956280;28;20050;-82
2023/01/03 11:20:46;;;;;;;0.10;0.10;;;;;;;;;;4955768;28;20492;-82
2023/01/03 11:23:18;;;;;;;0.10;0.10;;;;;;;;;;4956694;28;20046;-81
2023/01/03 11:25:50;;;;;;;1.20;1.05;;;;;;;;;;4951560;28;20057;-81
2023/01/03 11:28:19;;;;;;;0.63;0.63;;;;;;;;;;4970342;28;20110;-81
2023/01/03 11:30:54;;;;;;;0.10;0.10;;;;;;;;;;4973419;28;20532;-80
2023/01/03 11:33:32;;;;;;;0.25;0.25;;;;;;;;;;4950414;28;20199;-79
2023/01/03 11:36:19;;;;;;;0.10;0.10;;;;;;;;;;4951564;28;20046;-82
2023/01/03 11:38:51;;;;;;;0.10;0.10;;;;;;;;;;4949754;28;20058;-81
2023/01/03 11:41:33;;;;;;;0.10;0.10;;;;;;;;;;4953288;28;20041;-83
2023/01/03 11:43:59;;;;;;;0.10;0.10;;;;;;;;;;4971696;28;20125;-82
2023/01/03 11:46:40;;;;;;;0.45;0.45;;;;;;;;;;4948199;28;20049;-82
2023/01/03 11:49:09;;;;;;;0.47;0.47;;;;;;;;;;4953075;28;20038;-82
2023/01/03 11:51:41;;;;;;;5.10;4.68;;;;;;;;;;4947002;28;20049;-81
2023/01/03 11:54:26;;;;;;;0.10;0.10;;;;;;;;;;4953784;28;20046;-81
2023/01/03 11:56:52;;;;;;;0.10;0.10;;;;;;;;;;4959319;28;20506;-84
2023/01/03 11:59:25;;;;;;;0.10;0.10;;;;;;;;;;4960703;28;20046;-82
2023/01/03 12:01:51;;;;;;;0.85;0.85;;;;;;;;;;4974800;28;20492;-82
2023/01/03 12:04:35;;;;;;;0.20;0.20;;;;;;;;;;4960075;28;20334;-82
2023/01/03 12:07:11;;;;;;;0.10;0.10;;;;;;;;;;4958074;28;20094;-83
2023/01/03 12:09:44;;;;;;;2.22;2.05;;;;;;;;;;4955120;28;20283;-82
2023/01/03 12:12:10;;;;;;;0.10;0.10;;;;;;;;;;4953516;28;20056;-82
2023/01/03 12:14:47;;;;;;;0.10;0.10;;;;;;;;;;4975891;28;20389;-82
2023/01/03 12:17:17;;;;;;;0.10;0.10;;;;;;;;;;4953975;28;20576;-83
2023/01/03 12:19:43;;;;;;;0.10;0.10;;;;;;;;;;4954509;28;20098;-81
2023/01/03 12:22:27;;;;;;;0.43;0.38;;;;;;;;;;4960365;28;20052;-82
2023/01/03 12:24:59;;;;;;;0.95;0.95;;;;;;;;;;4959907;28;20048;-81
2023/01/03 12:27:32;;;;;;;0.10;0.10;;;;;;;;;;4959418;28;20038;-82
2023/01/03 12:30:22;;;;;;;0.20;0.20;;;;;;;;;;4957917;28;20567;-80
2023/01/03 12:32:54;;;;;;;0.40;0.40;;;;;;;;;;4939656;28;20046;-81
2023/01/03 12:35:23;;;;;;;0.10;0.10;;;;;;;;;;4955139;28;20042;-81
2023/01/03 12:37:50;;;;;;;0.52;0.52;;;;;;;;;;4947534;28;20050;-82
2023/01/03 12:40:21;;;;;;;0.20;0.20;;;;;;;;;;4958012;28;20519;-86
2023/01/03 12:42:56;;;;;;;0.13;0.13;;;;;;;;;;4959426;28;20038;-82
2023/01/03 12:45:43;;;;;;;0.30;0.30;;;;;;;;;;4957690;28;20046;-83
2023/01/03 12:48:15;;;;;;;1.73;1.63;;;;;;;;;;4972929;28;21484;-84
2023/01/03 12:50:44;;;;;;;0.10;0.10;;;;;;;;;;4958459;28;20496;-80
2023/01/03 12:53:17;;;;;;;0.43;0.43;;;;;;;;;;4958143;28;20084;-82
2023/01/03 12:56:02;;;;;;;0.10;0.10;;;;;;;;;;4960656;28;20089;-81
2023/01/03 12:58:41;;;;;;;0.10;0.10;;;;;;;;;;4958080;28;20080;-79
2023/01/03 13:01:10;;;;;;;0.30;0.30;;;;;;;;;;4956652;28;20057;-80
2023/01/03 13:03:56;;;;;;;0.20;0.20;;;;;;;;;;4954448;28;20046;-78
2023/01/03 13:06:34;;;;;;;0.10;0.10;;;;;;;;;;4975106;28;21392;-89
2023/01/03 13:09:20;;;;;;;0.10;0.10;;;;;;;;;;4975891;28;20044;-81
2023/01/03 13:11:51;;;;;;;0.20;0.20;;;;;;;;;;4990265;28;20476;-79
2023/01/03 13:14:22;;;;;;;0.10;0.10;;;;;;;;;;4957557;28;20050;-79
2023/01/03 13:16:49;;;;;;;0.63;0.63;;;;;;;;;;4988712;28;20081;-84
2023/01/03 13:19:21;;;;;;;0.82;0.82;;;;;;;;;;4960407;28;20156;-81
2023/01/03 13:21:54;;;;;;;0.10;0.10;;;;;;;;;;4958531;28;20501;-80
2023/01/03 13:24:38;;;;;;;0.10;0.10;;;;;;;;;;4957750;28;20085;-80
2023/01/03 13:27:17;;;;;;;0.10;0.10;;;;;;;;;;4974206;28;20060;-79
2023/01/03 13:29:48;;;;;;;1.02;1.02;;;;;;;;;;4977909;28;20083;-79
2023/01/03 13:32:20;;;;;;;0.10;0.10;;;;;;;;;;4977118;28;21049;-79
2023/01/03 13:34:56;;;;;;;0.50;0.50;;;;;;;;;;4991772;28;20038;-79
2023/01/03 13:37:29;;;;;;;0.10;0.10;;;;;;;;;;4973982;28;20523;-78
2023/01/03 13:39:57;;;;;;;0.10;0.10;;;;;;;;;;4962225;28;20063;-79
2023/01/03 13:42:33;;;;;;;0.20;0.20;;;;;;;;;;4954991;28;20042;-79
2023/01/03 13:45:14;;;;;;;0.10;0.10;;;;;;;;;;4956168;28;20073;-79
2023/01/03 13:47:40;;;;;;;0.10;0.10;;;;;;;;;;4955587;28;20038;-79
2023/01/03 13:50:18;;;;;;;0.10;0.10;;;;;;;;;;4963890;28;20049;-78
2023/01/03 13:53:00;;;;;;;0.10;0.10;;;;;;;;;;4991373;28;20172;-79
2023/01/03 13:55:47;;;;;;;0.22;0.22;;;;;;;;;;4999017;28;20046;-79
2023/01/03 13:58:39;;;;;;;0.10;0.10;;;;;;;;;;4961119;28;20058;-79
2023/01/03 14:01:15;;;;;;;2.75;0.90;;;;;;;;;;4962969;28;20556;-78
2023/01/03 14:03:54;;;;;;;0.10;0.10;;;;;;;;;;4956903;28;20507;-78
2023/01/03 14:06:46;;;;;;;0.10;0.10;;;;;;;;;;4954855;28;20134;-79
2023/01/03 14:09:18;;;;;;;3.53;2.17;;;;;;;;;;4956671;28;20050;-76
2023/01/03 14:11:54;;;;;;;0.10;0.10;;;;;;;;;;4952972;28;20119;-76
2023/01/03 14:14:23;;;;;;;0.30;0.30;;;;;;;;;;4955280;28;20103;-76
2023/01/03 14:16:51;;;;;;;0.10;0.10;;;;;;;;;;4955591;28;20051;-76
2023/01/03 14:19:23;;;;;;;4.75;0.90;;;;;;;;;;4955535;28;20085;-75
2023/01/03 14:22:03;;;;;;;0.10;0.10;;;;;;;;;;4956502;28;20761;-77
2023/01/03 14:24:31;;;;;;;0.10;0.10;;;;;;;;;;4940144;28;20080;-76
2023/01/03 14:27:10;;;;;;;0.10;0.10;;;;;;;;;;4951552;28;20041;-76
2023/01/03 14:29:37;;;;;;;0.10;0.10;;;;;;;;;;4976347;28;20038;-75
2023/01/03 14:32:04;;;;;;;0.10;0.10;;;;;;;;;;4976493;28;20053;-76
2023/01/03 14:34:39;;;;;;;0.10;0.10;;;;;;;;;;4975354;28;20511;-75
2023/01/03 14:37:07;;;;;;;0.10;0.10;;;;;;;;;;4974612;28;20058;-76
2023/01/03 14:39:33;;;;;;;0.10;0.10;;;;;;;;;;4957383;28;20051;-75
2023/01/03 14:42:00;;;;;;;0.10;0.10;;;;;;;;;;4956327;28;20942;-75
2023/01/03 14:44:28;;;;;;;19.30;3.25;;;;;;;;;;4957929;28;20050;-76
2023/01/03 14:47:04;;;;;;;0.10;0.10;;;;;;;;;;4956340;28;20558;-76
2023/01/03 14:49:37;;;;;;;0.10;0.10;;;;;;;;;;4957167;28;20050;-76
2023/01/03 14:52:05;;;;;;;0.10;0.10;;;;;;;;;;4955157;28;20099;-75
2023/01/03 14:54:32;;;;;;;0.55;0.55;;;;;;;;;;4976822;28;20518;-75
2023/01/03 14:56:59;;;;;;;0.43;0.43;;;;;;;;;;4956285;28;20046;-76
2023/01/03 14:59:25;;;;;;;0.10;0.10;;;;;;;;;;4957109;28;20049;-76
2023/01/03 15:01:52;;;;;;;0.20;0.20;;;;;;;;;;4974764;28;20069;-75
2023/01/03 15:04:18;;;;;;;0.10;0.10;;;;;;;;;;4976540;28;20046;-75
2023/01/03 15:07:17;;;;;;;1.38;1.27;;;;;;;;;;4971768;28;20050;-76
2023/01/03 15:09:43;;;;;;;0.10;0.10;;;;;;;;;;4997467;28;20055;-75
2023/01/03 15:12:13;;;;;;;0.35;0.35;;;;;;;;;;4956699;28;20177;-75
2023/01/03 15:14:39;;;;;;;0.10;0.10;;;;;;;;;;4955215;28;20050;-76
2023/01/03 15:17:08;;;;;;;0.40;0.40;;;;;;;;;;4958853;28;20443;-76
2023/01/03 15:19:35;;;;;;;0.20;0.20;;;;;;;;;;4976844;28;20050;-76
2023/01/03 15:22:12;;;;;;;0.65;0.65;;;;;;;;;;4975285;28;20560;-76
2023/01/03 15:24:50;;;;;;;0.70;0.70;;;;;;;;;;4940871;28;20057;-76
2023/01/03 15:27:32;;;;;;;0.10;0.10;;;;;;;;;;4955854;28;21535;-76
2023/01/03 15:30:08;;;;;;;3.60;1.00;;;;;;;;;;4957174;28;20059;-75
2023/01/03 15:32:45;;;;;;;0.40;0.40;;;;;;;;;;4975468;28;20093;-76
2023/01/03 15:35:18;;;;;;;0.17;0.17;;;;;;;;;;4975389;28;20047;-74
2023/01/03 15:37:44;;;;;;;0.30;0.30;;;;;;;;;;4954682;28;20090;-76
2023/01/03 15:40:13;;;;;;;0.10;0.10;;;;;;;;;;4956938;28;20081;-76
2023/01/03 15:45:27;;;;;;;0.10;0.10;;;;;;;;;;4957373;28;20084;-76
2023/01/03 15:47:55;;;;;;;1.23;1.13;;;;;;;;;;4955623;28;20511;-76
2023/01/03 15:50:21;;;;;;;0.10;0.10;;;;;;;;;;4951140;28;20099;-75
2023/01/03 15:52:48;;;;;;;0.80;0.80;;;;;;;;;;4951835;28;20571;-74
2023/01/03 15:55:14;;;;;;;0.10;0.10;;;;;;;;;;4955701;28;20042;-77
2023/01/03 15:57:43;;;;;;;2.72;0.65;;;;;;;;;;4934505;28;20181;-75